Time;durP1;ratioP1;P1;durP2;ratioP2;P2;SDS_P1;SDS_P2;PMS_P1;PMS_P2;Temp;Humidity;BMP_temperature;BMP_pressure;BME280_temperature;BME280_humidity;BME280_pressure;Samples;Min_cycle;Max_cycle;Signal;HPM_P1;HPM_P2
2022/11/17 00:00:20;;;;;;;9.75;6.25;;;;;;;4.43;100.00;97933.72;4236167;33;20038;-71
2022/11/17 00:03:01;;;;;;;10.48;7.43;;;;;;;4.27;100.00;97950.44;4244082;33;20046;-72
2022/11/17 00:05:27;;;;;;;11.43;6.68;;;;;;;4.27;100.00;97961.91;4222512;34;21049;-72
2022/11/17 00:07:54;;;;;;;11.12;6.68;;;;;;;4.59;100.00;97958.81;4224580;33;20062;-72
2022/11/17 00:10:20;;;;;;;9.20;6.30;;;;;;;4.77;100.00;97970.34;4224029;34;20089;-70
2022/11/17 00:15:32;;;;;;;10.60;6.50;;;;;;;4.30;100.00;97958.78;4222441;34;20393;-71
2022/11/17 00:23:46;;;;;;;10.10;5.68;;;;;;;4.76;100.00;97964.22;4223042;34;20112;-71
2022/11/17 00:27:02;;;;;;;10.35;6.57;;;;;;;4.60;100.00;97964.97;4223487;34;20051;-71
2022/11/17 00:29:29;;;;;;;9.57;6.53;;;;;;;4.69;100.00;97967.03;4222514;34;20120;-72
2022/11/17 00:34:41;;;;;;;11.38;5.90;;;;;;;4.73;100.00;97965.47;4224790;33;20081;-71
2022/11/17 00:37:09;;;;;;;9.80;6.62;;;;;;;4.54;100.00;97934.72;4223253;34;20108;-70
2022/11/17 00:39:35;;;;;;;11.70;7.62;;;;;;;4.87;100.00;97959.88;4226869;34;20559;-70
2022/11/17 00:42:02;;;;;;;9.95;5.95;;;;;;;4.78;100.00;97963.97;4226829;34;20166;-72
2022/11/17 00:44:29;;;;;;;9.00;6.15;;;;;;;4.68;100.00;97973.37;4226925;34;20050;-72
2022/11/17 00:46:56;;;;;;;8.27;5.55;;;;;;;4.50;100.00;97933.56;4226328;34;20043;-72
2022/11/17 00:49:25;;;;;;;9.05;6.62;;;;;;;4.79;100.00;97968.28;4224724;33;20051;-71
2022/11/17 00:51:53;;;;;;;14.23;7.32;;;;;;;4.67;100.00;97960.28;4226906;34;20055;-72
2022/11/17 00:54:20;;;;;;;11.68;7.62;;;;;;;4.78;100.00;97955.97;4228547;33;20042;-71
2022/11/17 00:56:46;;;;;;;11.30;7.20;;;;;;;4.74;100.00;97952.97;4226606;34;20059;-71
2022/11/17 00:59:13;;;;;;;11.80;7.55;;;;;;;4.66;100.00;97937.34;4231368;33;20063;-69
2022/11/17 03:00:09;;;;;;;6.03;4.22;;;;;;;4.16;100.00;97938.75;5068401;27;20049;31
2022/11/17 03:02:39;;;;;;;6.95;4.18;;;;;;;4.05;100.00;97931.59;4262511;33;20063;-71
2022/11/17 03:05:26;;;;;;;4.87;3.87;;;;;;;4.17;100.00;97916.41;4268019;33;20161;-70
2022/11/17 03:08:11;;;;;;;5.12;3.50;;;;;;;4.34;100.00;97951.09;4266636;33;20364;-71
2022/11/17 03:10:50;;;;;;;4.93;3.85;;;;;;;4.29;100.00;97927.84;4275131;33;20081;-70
2022/11/17 03:13:24;;;;;;;5.65;4.55;;;;;;;4.41;100.00;97945.66;4273321;33;20053;-69
2022/11/17 03:16:03;;;;;;;4.65;3.97;;;;;;;3.77;100.00;97919.84;4274182;33;20105;-70
2022/11/17 03:18:40;;;;;;;5.50;4.12;;;;;;;4.15;100.00;97947.81;4281620;33;20045;-71
2022/11/17 03:21:35;;;;;;;5.10;4.10;;;;;;;3.85;100.00;97934.66;4281184;33;20200;-71
2022/11/17 03:24:20;;;;;;;5.20;3.95;;;;;;;3.62;100.00;97946.91;4246234;33;20038;-71
2022/11/17 03:26:52;;;;;;;6.30;4.70;;;;;;;3.64;100.00;97911.03;4260336;33;20502;-71
2022/11/17 03:29:21;;;;;;;4.60;3.20;;;;;;;3.93;100.00;97955.59;4225687;33;20047;-71
2022/11/17 03:31:55;;;;;;;5.37;4.05;;;;;;;3.83;100.00;97948.19;4233332;33;20082;-71
2022/11/17 03:34:23;;;;;;;5.43;3.62;;;;;;;4.06;100.00;97917.25;4229350;33;20199;-72
2022/11/17 03:36:57;;;;;;;4.97;3.55;;;;;;;4.07;100.00;97945.50;4232854;33;20064;-71
2022/11/17 03:39:29;;;;;;;5.43;4.43;;;;;;;3.90;100.00;97921.44;4208983;34;20511;-71
2022/11/17 03:42:13;;;;;;;4.03;3.62;;;;;;;4.03;100.00;97949.69;4191631;34;20061;-70
2022/11/17 03:44:44;;;;;;;6.60;3.70;;;;;;;4.18;100.00;97947.34;4209179;34;20065;-72
2022/11/17 03:47:14;;;;;;;3.95;3.58;;;;;;;4.07;100.00;97946.31;4208447;34;20032;-72
2022/11/17 03:49:44;;;;;;;5.18;3.35;;;;;;;4.07;100.00;97942.81;4207699;34;20406;-70
2022/11/17 03:52:10;;;;;;;7.07;3.40;;;;;;;4.04;100.00;97941.47;4208942;34;20201;-71
2022/11/17 03:54:37;;;;;;;3.62;3.33;;;;;;;3.71;100.00;97934.06;4212294;34;20043;-71
2022/11/17 03:57:15;;;;;;;4.03;2.97;;;;;;;3.74;100.00;97937.06;4236303;33;20031;-70
2022/11/17 03:59:58;;;;;;;4.30;2.60;;;;;;;3.61;100.00;97905.37;4238806;33;20075;-71
2022/11/17 04:02:26;;;;;;;5.80;3.70;;;;;;;3.74;100.00;97933.59;4249920;33;20042;-72
2022/11/17 04:05:05;;;;;;;5.93;3.62;;;;;;;3.84;100.00;97915.19;4243974;33;20054;-71
2022/11/17 04:07:42;;;;;;;6.05;3.47;;;;;;;3.70;100.00;97903.16;4237195;33;20053;-71
2022/11/17 04:10:20;;;;;;;7.07;3.33;;;;;;;3.87;100.00;97936.03;4237196;33;20453;-72
2022/11/17 04:18:19;;;;;;;3.47;3.17;;;;;;;3.21;100.00;97933.44;4223851;34;20066;-72
2022/11/17 04:20:54;;;;;;;5.25;3.58;;;;;;;3.59;100.00;97934.87;4225791;34;20076;-71
2022/11/17 04:23:22;;;;;;;4.90;3.62;;;;;;;3.77;100.00;97941.94;4224533;33;20035;-72
2022/11/17 04:28:39;;;;;;;4.37;3.78;;;;;;;3.41;100.00;97934.97;4224742;34;20093;-71
2022/11/17 04:31:09;;;;;;;4.65;4.15;;;;;;;3.56;100.00;97934.53;4224921;34;20434;-72
2022/11/17 04:33:37;;;;;;;4.70;3.33;;;;;;;2.85;100.00;97940.50;4225588;34;20450;-72
2022/11/17 04:36:04;;;;;;;4.05;3.30;;;;;;;3.28;100.00;97939.47;4210346;34;20110;-72
2022/11/17 04:38:31;;;;;;;4.07;3.67;;;;;;;3.46;100.00;97951.06;4229665;33;20078;-71
2022/11/17 04:43:48;;;;;;;4.37;3.92;;;;;;;3.01;100.00;97909.00;4251217;33;20073;-70
2022/11/17 04:46:15;;;;;;;5.18;3.45;;;;;;;3.03;100.00;97941.50;4252692;33;20512;-72
2022/11/17 04:48:42;;;;;;;4.85;3.85;;;;;;;3.24;100.00;97943.63;4260389;33;20042;-72
2022/11/17 04:51:10;;;;;;;6.37;4.50;;;;;;;3.27;100.00;97942.34;4269871;33;20067;-72
2022/11/17 04:53:37;;;;;;;4.15;3.60;;;;;;;2.34;100.00;97952.44;4237956;33;20082;-69
2022/11/17 04:56:04;;;;;;;4.22;3.83;;;;;;;3.12;100.00;97950.78;4252130;33;20058;-72
2022/11/17 04:58:30;;;;;;;5.57;3.75;;;;;;;2.71;100.00;97923.13;4253330;33;20041;-72
2022/11/17 05:01:11;;;;;;;4.47;3.60;;;;;;;2.90;100.00;97926.53;4252498;33;20115;-71
2022/11/17 05:03:58;;;;;;;2.85;2.65;;;;;;;3.41;100.00;97953.59;4251892;33;20124;-70
2022/11/17 05:06:30;;;;;;;4.00;3.60;;;;;;;3.36;100.00;97948.16;4209984;34;20051;-72
2022/11/17 05:08:59;;;;;;;3.72;3.20;;;;;;;3.38;100.00;97943.41;4210043;34;20096;-71
2022/11/17 05:14:15;;;;;;;4.80;3.83;;;;;;;3.46;100.00;97959.03;4211304;34;20061;-71
2022/11/17 05:19:29;;;;;;;7.05;3.85;;;;;;;3.50;100.00;97957.56;4210433;34;20135;-71
2022/11/17 05:21:56;;;;;;;5.10;3.85;;;;;;;3.02;100.00;97919.41;4210719;34;20434;-71
2022/11/17 05:24:22;;;;;;;4.30;3.90;;;;;;;2.97;100.00;97953.03;4218062;33;20042;-71
2022/11/17 05:26:49;;;;;;;10.98;3.95;;;;;;;3.09;100.00;97929.94;4233582;33;20183;-70
2022/11/17 05:29:18;;;;;;;5.87;4.93;;;;;;;3.08;100.00;97949.63;4238804;33;20034;-71
2022/11/17 05:31:45;;;;;;;5.87;3.87;;;;;;;3.20;100.00;97953.09;4238685;33;20230;-71
2022/11/17 05:34:13;;;;;;;6.22;4.00;;;;;;;2.88;100.00;97939.25;4238483;33;20421;-71
2022/11/17 05:36:40;;;;;;;7.22;4.47;;;;;;;2.76;100.00;97963.16;4240412;33;20403;-70
2022/11/17 05:39:08;;;;;;;4.45;3.85;;;;;;;3.06;100.00;97962.31;4269038;33;20087;-72
2022/11/17 05:41:36;;;;;;;5.55;3.97;;;;;;;2.84;100.00;97928.28;4269235;33;20055;-72
2022/11/17 05:44:03;;;;;;;5.65;3.85;;;;;;;2.80;100.00;97953.69;4278444;33;20033;-72
2022/11/17 05:46:30;;;;;;;6.03;3.35;;;;;;;2.93;100.00;97960.66;4271372;33;20068;-71
2022/11/17 05:48:57;;;;;;;6.00;4.00;;;;;;;3.11;100.00;97924.41;4280785;33;20098;-71
2022/11/17 05:51:24;;;;;;;4.20;3.90;;;;;;;3.04;100.00;97959.88;4287983;33;20408;-72
2022/11/17 05:53:50;;;;;;;6.55;3.72;;;;;;;2.52;100.00;97951.59;4297606;33;20063;-71
2022/11/17 05:56:32;;;;;;;4.35;3.58;;;;;;;3.09;100.00;97961.88;4296562;33;20094;-70
2022/11/17 05:59:04;;;;;;;4.43;3.33;;;;;;;2.70;100.00;97958.75;4252280;33;20429;-71
2022/11/17 06:01:33;;;;;;;3.53;3.25;;;;;;;2.70;100.00;97927.66;4250216;33;20502;-71
2022/11/17 06:04:02;;;;;;;7.82;3.78;;;;;;;3.06;100.00;97967.63;4250505;33;20448;-71
2022/11/17 06:06:29;;;;;;;3.30;3.00;;;;;;;2.95;100.00;97955.12;4249908;33;20052;-69
2022/11/17 06:08:55;;;;;;;3.17;2.87;;;;;;;2.66;100.00;97958.34;4264584;33;20063;-70
2022/11/17 06:11:22;;;;;;;4.97;3.05;;;;;;;2.99;100.00;97967.75;4247485;33;20090;-70
2022/11/17 06:13:48;;;;;;;3.50;3.25;;;;;;;2.57;100.00;97969.53;4238592;33;20077;-71
2022/11/17 06:16:19;;;;;;;3.37;3.08;;;;;;;2.78;100.00;97971.72;4237887;33;20055;-70
2022/11/17 06:19:03;;;;;;;2.72;2.53;;;;;;;3.16;100.00;97967.91;4237215;33;20062;-69
2022/11/17 06:21:30;;;;;;;4.40;3.00;;;;;;;2.53;100.00;97954.03;4238239;33;20035;-70
2022/11/17 06:23:59;;;;;;;4.05;3.05;;;;;;;3.01;100.00;97951.56;4238251;33;20038;-71
2022/11/17 06:26:25;;;;;;;3.35;2.80;;;;;;;2.85;100.00;97961.78;4242191;33;20071;-71
2022/11/17 06:28:52;;;;;;;5.80;3.30;;;;;;;2.84;100.00;97944.22;4244120;33;20190;-70
2022/11/17 06:31:19;;;;;;;3.83;2.97;;;;;;;3.00;100.00;97974.69;4251882;33;20058;-71
2022/11/17 06:33:46;;;;;;;3.22;2.78;;;;;;;2.96;100.00;97962.06;4250962;33;20199;-72
2022/11/17 06:36:12;;;;;;;5.80;3.00;;;;;;;2.79;100.00;97973.31;4244483;33;20064;-71
2022/11/17 06:38:39;;;;;;;5.03;3.20;;;;;;;2.94;100.00;97986.22;4251388;33;20064;-71
2022/11/17 06:41:06;;;;;;;5.57;3.17;;;;;;;2.91;100.00;97939.62;4245640;33;20113;-70
2022/11/17 06:43:32;;;;;;;2.92;2.62;;;;;;;3.19;100.00;97972.78;4243871;33;20058;-71
2022/11/17 06:46:03;;;;;;;3.05;2.72;;;;;;;3.05;100.00;97982.00;4251993;33;20053;-71
2022/11/17 06:48:34;;;;;;;3.30;2.67;;;;;;;3.02;100.00;97977.12;4252023;33;20043;-70
2022/11/17 06:51:03;;;;;;;3.55;3.25;;;;;;;2.96;100.00;97978.03;4249272;33;20050;-71
2022/11/17 06:53:32;;;;;;;4.55;3.37;;;;;;;2.67;100.00;97975.13;4251305;33;20071;-73
2022/11/17 06:56:11;;;;;;;4.68;3.22;;;;;;;2.86;100.00;97979.38;4232828;33;20452;-73
2022/11/17 06:58:40;;;;;;;4.80;3.70;;;;;;;2.62;100.00;97990.94;4221826;34;20075;-71
2022/11/17 07:01:11;;;;;;;3.80;3.40;;;;;;;3.14;100.00;97972.63;4230152;33;20121;-73
2022/11/17 07:03:39;;;;;;;4.93;3.30;;;;;;;2.69;100.00;97979.19;4237023;33;20447;-72
2022/11/17 07:06:08;;;;;;;5.35;3.50;;;;;;;2.74;100.00;97954.59;4233850;33;20184;-72
2022/11/17 07:08:35;;;;;;;8.43;3.12;;;;;;;3.05;100.00;97982.00;4209180;34;20042;-72
2022/11/17 07:11:10;;;;;;;4.07;3.55;;;;;;;3.22;100.00;97953.72;4208782;34;20053;-73
2022/11/17 07:13:37;;;;;;;4.80;3.33;;;;;;;2.65;100.00;97993.12;4211718;33;20039;-73
2022/11/17 07:16:15;;;;;;;5.30;4.00;;;;;;;2.75;100.00;97956.22;4236919;33;20042;-73
2022/11/17 07:18:42;;;;;;;9.73;3.83;;;;;;;3.04;100.00;97985.69;4235927;33;20042;-72
2022/11/17 07:21:14;;;;;;;5.20;3.60;;;;;;;2.97;100.00;97995.59;4209957;34;20490;-73
2022/11/17 07:23:43;;;;;;;4.50;3.22;;;;;;;3.02;100.00;97956.66;4202166;34;20184;-71
2022/11/17 07:26:13;;;;;;;4.57;3.80;;;;;;;3.34;100.00;97984.84;4208032;34;20042;-71
2022/11/17 07:28:39;;;;;;;7.50;4.18;;;;;;;2.74;100.00;97975.84;4213662;33;20046;-72
2022/11/17 07:31:07;;;;;;;5.00;4.20;;;;;;;2.75;100.00;97996.09;4223041;34;20642;-72
2022/11/17 07:33:34;;;;;;;5.03;4.03;;;;;;;2.81;100.00;97970.44;4222466;33;20039;-73
2022/11/17 07:36:05;;;;;;;3.75;3.37;;;;;;;2.47;100.00;97954.12;4218212;33;20093;-71
2022/11/17 07:38:33;;;;;;;6.55;3.75;;;;;;;2.95;100.00;97984.38;4216717;33;20072;-72
2022/11/17 07:41:00;;;;;;;13.20;3.40;;;;;;;3.14;100.00;97990.44;4251395;33;20095;-72
2022/11/17 07:43:26;;;;;;;3.92;3.40;;;;;;;3.34;100.00;97995.50;4251646;33;20428;-72
2022/11/17 07:45:53;;;;;;;5.12;3.28;;;;;;;3.11;100.00;97999.69;4252913;33;20046;-73
2022/11/17 07:48:20;;;;;;;3.45;3.03;;;;;;;3.19;100.00;97988.75;4252067;33;20390;-73
2022/11/17 07:50:46;;;;;;;4.62;3.72;;;;;;;3.44;100.00;98001.84;4250222;33;20075;-74
2022/11/17 07:53:14;;;;;;;4.70;3.87;;;;;;;3.05;100.00;97969.50;4267918;33;20029;-73
2022/11/17 07:55:40;;;;;;;4.72;3.28;;;;;;;3.04;100.00;97977.69;4238827;33;20060;-74
2022/11/17 07:58:06;;;;;;;4.05;3.62;;;;;;;3.39;100.00;98003.59;4239072;33;20392;-72
2022/11/17 08:00:33;;;;;;;3.70;3.35;;;;;;;3.07;100.00;97963.94;4239734;33;20364;-73
2022/11/17 08:03:02;;;;;;;4.18;3.03;;;;;;;2.95;100.00;97981.72;4258027;33;20079;-74
2022/11/17 08:05:31;;;;;;;3.70;3.22;;;;;;;2.99;100.00;97993.53;4254663;33;20084;-73
2022/11/17 08:07:58;;;;;;;3.80;3.42;;;;;;;2.71;100.00;97966.50;4253959;33;20071;-73
2022/11/17 08:10:27;;;;;;;4.60;3.28;;;;;;;2.62;100.00;97993.59;4252202;33;20054;-71
2022/11/17 08:12:54;;;;;;;5.62;3.05;;;;;;;2.58;100.00;97969.31;4231760;33;20050;-72
2022/11/17 08:15:29;;;;;;;4.05;3.50;;;;;;;2.94;100.00;97990.75;4234460;33;20077;-73
2022/11/17 08:17:58;;;;;;;3.90;3.50;;;;;;;2.78;100.00;97977.03;4218358;34;21404;-72
2022/11/17 08:20:27;;;;;;;4.65;3.05;;;;;;;2.52;100.00;98000.25;4218155;33;20068;-71
2022/11/17 08:22:54;;;;;;;4.18;3.35;;;;;;;2.93;100.00;97999.75;4224515;33;20043;-73
2022/11/17 08:25:23;;;;;;;7.43;3.37;;;;;;;2.88;100.00;98003.87;4225668;33;20065;-73
2022/11/17 08:27:50;;;;;;;3.67;3.03;;;;;;;3.08;100.00;97977.03;4208477;34;20496;-73
2022/11/17 08:30:19;;;;;;;4.20;3.33;;;;;;;2.81;100.00;97975.75;4209851;34;20073;-72
2022/11/17 08:32:48;;;;;;;5.75;3.25;;;;;;;2.94;100.00;97966.81;4208813;34;20054;-73
2022/11/17 08:35:15;;;;;;;3.85;2.90;;;;;;;2.87;100.00;97993.47;4211175;34;20048;-73
2022/11/17 08:37:42;;;;;;;3.78;3.00;;;;;;;2.84;100.00;98001.91;4211730;34;20055;-73
2022/11/17 08:40:10;;;;;;;4.60;3.42;;;;;;;2.57;100.00;98010.22;4221776;33;20068;-73
2022/11/17 08:42:36;;;;;;;4.22;3.20;;;;;;;2.53;100.00;98007.19;4213239;34;20368;-73
2022/11/17 08:45:04;;;;;;;3.67;2.50;;;;;;;2.82;100.00;98010.09;4195011;34;20071;-74
2022/11/17 08:47:31;;;;;;;5.15;3.42;;;;;;;2.85;100.00;98001.66;4195101;34;20105;-72
2022/11/17 08:49:57;;;;;;;4.97;3.03;;;;;;;2.74;100.00;98007.75;4206549;34;20098;-72
2022/11/17 08:52:26;;;;;;;5.90;3.10;;;;;;;2.98;100.00;98013.16;4209299;34;20348;-71
2022/11/17 08:54:53;;;;;;;3.87;3.08;;;;;;;2.89;100.00;98016.16;4205816;34;20051;-71
2022/11/17 08:57:22;;;;;;;3.33;2.75;;;;;;;2.56;100.00;98021.06;4208976;34;20464;-72
2022/11/17 08:59:49;;;;;;;6.55;3.45;;;;;;;2.67;100.00;97980.44;4232290;33;20094;-73
2022/11/17 09:02:16;;;;;;;5.43;3.90;;;;;;;2.83;100.00;98027.69;4235572;33;20066;-72
2022/11/17 09:04:44;;;;;;;4.90;3.83;;;;;;;3.11;100.00;98015.62;4235352;33;20412;-72
2022/11/17 09:07:11;;;;;;;3.53;2.90;;;;;;;3.16;100.00;98021.13;4237397;33;20080;-73
2022/11/17 09:09:38;;;;;;;2.80;2.45;;;;;;;2.31;100.00;97987.41;4237506;33;20038;-73
2022/11/17 09:12:04;;;;;;;6.12;4.47;;;;;;;3.14;100.00;98023.16;4211660;34;20110;-73
2022/11/17 09:14:31;;;;;;;6.40;3.30;;;;;;;3.08;100.00;97992.19;4208354;34;20182;-72
2022/11/17 09:16:58;;;;;;;6.57;2.85;;;;;;;2.82;100.00;97978.19;4226832;33;20176;-72
2022/11/17 09:19:25;;;;;;;3.60;2.97;;;;;;;2.66;100.00;98018.69;4252866;33;20049;-73
2022/11/17 09:21:51;;;;;;;2.78;2.50;;;;;;;2.94;100.00;98009.34;4253270;33;20073;-73
2022/11/17 09:24:18;;;;;;;3.62;2.95;;;;;;;3.11;100.00;98018.28;4253320;33;20141;-73
2022/11/17 09:26:44;;;;;;;3.45;2.97;;;;;;;2.83;100.00;98009.06;4251113;33;20434;-71
2022/11/17 09:29:12;;;;;;;2.78;2.40;;;;;;;2.27;100.00;98007.50;4253077;33;20053;-72
2022/11/17 09:31:39;;;;;;;4.03;2.25;;;;;;;2.28;100.00;97987.84;4251716;33;20060;-72
2022/11/17 09:34:05;;;;;;;4.75;2.80;;;;;;;2.42;100.00;98015.88;4252846;33;20064;-72
2022/11/17 09:36:32;;;;;;;5.25;2.60;;;;;;;2.27;100.00;97981.72;4252130;33;20075;-70
2022/11/17 09:38:59;;;;;;;5.85;2.75;;;;;;;2.38;100.00;98014.72;4251636;33;20034;-72
2022/11/17 09:41:33;;;;;;;4.07;2.67;;;;;;;2.39;100.00;97995.06;4253395;33;20182;-72
2022/11/17 09:44:17;;;;;;;3.60;2.58;;;;;;;2.13;100.00;98002.31;4264718;33;20064;-72
2022/11/17 09:47:18;;;;;;;6.97;2.75;;;;;;;2.34;100.00;98016.19;4266387;33;20209;-73
2022/11/17 09:49:57;;;;;;;4.87;3.00;;;;;;;2.42;100.00;97999.16;4271200;33;20070;-72
2022/11/17 09:52:28;;;;;;;5.47;3.28;;;;;;;2.28;100.00;97977.22;4271359;33;20731;-72
2022/11/17 09:55:01;;;;;;;8.50;3.37;;;;;;;2.47;100.00;97976.19;4246499;33;20516;-73
2022/11/17 09:57:35;;;;;;;5.18;3.22;;;;;;;2.91;100.00;97998.13;4252054;33;20038;-71
2022/11/17 10:00:04;;;;;;;3.40;2.90;;;;;;;2.73;100.00;97975.03;4249416;33;20053;-71
2022/11/17 10:02:31;;;;;;;4.32;3.25;;;;;;;2.51;100.00;97998.63;4250648;33;20046;-71
2022/11/17 10:04:59;;;;;;;7.20;3.45;;;;;;;2.09;100.00;97979.91;4252322;33;20475;-72
2022/11/17 10:07:26;;;;;;;3.10;2.80;;;;;;;2.40;100.00;98004.69;4239694;33;20062;-68
2022/11/17 10:09:53;;;;;;;4.85;3.22;;;;;;;2.81;100.00;97999.69;4233835;33;20068;-71
2022/11/17 10:12:24;;;;;;;9.43;3.20;;;;;;;2.01;100.00;97964.25;4238452;33;20031;-72
2022/11/17 10:14:51;;;;;;;5.90;3.22;;;;;;;2.45;100.00;97962.31;4233836;33;20055;-72
2022/11/17 10:17:17;;;;;;;2.90;2.70;;;;;;;2.96;100.00;97999.28;4200573;34;20183;-69
2022/11/17 10:19:44;;;;;;;3.28;2.58;;;;;;;2.67;100.00;97964.50;4200703;34;20071;-70
2022/11/17 10:22:20;;;;;;;3.62;2.80;;;;;;;2.91;100.00;97999.97;4216681;34;20054;-70
2022/11/17 10:24:54;;;;;;;8.77;3.90;;;;;;;2.89;100.00;97994.88;4215704;34;20044;-70
2022/11/17 10:27:24;;;;;;;3.85;3.50;;;;;;;2.44;100.00;97994.41;4207125;34;20057;-69
2022/11/17 10:29:58;;;;;;;4.37;3.05;;;;;;;2.39;100.00;97997.72;4206810;34;20051;-71
2022/11/17 10:32:30;;;;;;;3.65;2.75;;;;;;;2.23;100.00;97961.16;4207142;34;20086;-70
2022/11/17 10:35:20;;;;;;;5.70;3.00;;;;;;;2.86;100.00;97995.31;4185211;34;20071;-69
2022/11/17 10:37:59;;;;;;;7.53;2.58;;;;;;;2.87;100.00;97996.97;4172286;34;20404;-69
2022/11/17 10:40:45;;;;;;;2.47;2.28;;;;;;;2.89;100.00;97984.25;4166807;34;20097;-70
2022/11/17 10:43:15;;;;;;;3.30;2.67;;;;;;;2.79;100.00;97994.59;4159066;34;20049;-70
2022/11/17 10:48:34;;;;;;;5.35;2.83;;;;;;;3.03;100.00;97990.19;4146295;34;20056;-69
2022/11/17 10:51:22;;;;;;;7.00;2.12;;;;;;;2.30;100.00;97991.13;4161304;34;20055;-71
2022/11/17 10:54:28;;;;;;;3.03;2.83;;;;;;;2.31;100.00;97915.69;4181353;34;20073;-71
2022/11/17 10:56:58;;;;;;;4.68;2.53;;;;;;;2.16;100.00;97993.91;4141178;34;20372;-70
2022/11/17 10:59:45;;;;;;;3.20;2.67;;;;;;;2.68;100.00;97984.72;4151790;34;20065;-69
2022/11/17 11:02:30;;;;;;;2.95;2.60;;;;;;;2.33;100.00;97991.47;4148621;34;20045;-70
2022/11/17 11:05:30;;;;;;;4.22;3.05;;;;;;;2.11;100.00;97985.78;4140770;34;20063;-71
2022/11/17 11:08:24;;;;;;;2.97;2.40;;;;;;;1.88;100.00;97988.25;4137745;34;20076;-68
2022/11/17 11:11:27;;;;;;;5.20;3.03;;;;;;;2.05;100.00;97996.50;4152448;34;20069;-70
2022/11/17 11:14:04;;;;;;;6.65;4.12;;;;;;;2.01;100.00;97988.16;4150314;34;20051;-70
2022/11/17 11:16:36;;;;;;;5.30;2.75;;;;;;;2.14;100.00;97985.34;4139310;34;20062;-71
2022/11/17 11:19:14;;;;;;;3.47;2.50;;;;;;;2.16;100.00;97975.31;4139170;34;20391;-70
2022/11/17 11:22:29;;;;;;;2.92;2.58;;;;;;;2.21;100.00;97989.78;4137606;34;20057;-69
2022/11/17 11:25:05;;;;;;;6.12;2.85;;;;;;;2.55;100.00;97991.00;4143221;34;20124;-69
2022/11/17 11:27:59;;;;;;;3.12;2.80;;;;;;;2.29;100.00;97994.78;4190707;33;20076;-70
2022/11/17 11:30:35;;;;;;;3.03;2.72;;;;;;;1.47;100.00;97963.94;4251027;33;20046;-69
2022/11/17 11:33:06;;;;;;;2.95;2.70;;;;;;;1.27;100.00;97982.66;4250602;33;20492;-70
2022/11/17 11:35:55;;;;;;;5.85;2.90;;;;;;;1.63;100.00;97992.56;4252239;33;20411;-71
2022/11/17 11:38:29;;;;;;;7.93;2.80;;;;;;;1.63;100.00;97986.47;4248889;33;20031;-70
2022/11/17 11:40:58;;;;;;;3.47;3.08;;;;;;;1.75;100.00;97979.38;4250710;33;20409;-70
2022/11/17 11:43:35;;;;;;;4.20;3.47;;;;;;;1.73;100.00;97992.06;4280903;33;20053;-70
2022/11/17 11:46:17;;;;;;;3.20;2.90;;;;;;;1.57;100.00;97993.44;4256376;33;20080;-69
2022/11/17 11:48:47;;;;;;;3.15;2.72;;;;;;;1.84;100.00;97992.41;4256751;33;20050;-70
2022/11/17 11:51:19;;;;;;;5.50;3.65;;;;;;;1.94;100.00;97992.72;4256210;33;20089;-70
2022/11/17 11:53:52;;;;;;;3.47;3.20;;;;;;;1.63;100.00;97997.88;4247011;33;20105;-70
2022/11/17 11:56:28;;;;;;;6.30;3.83;;;;;;;1.47;100.00;98002.91;4250122;33;20105;-70
2022/11/17 11:59:04;;;;;;;4.87;3.03;;;;;;;1.48;100.00;98000.03;4248964;33;20053;-70
2022/11/17 12:01:44;;;;;;;5.45;3.10;;;;;;;1.35;100.00;98000.94;4388919;28;20470;-70
2022/11/17 12:04:22;;;;;;;5.65;3.80;;;;;;;1.54;100.00;98001.03;4247392;33;20035;-70
2022/11/17 12:06:57;;;;;;;2.55;2.40;;;;;;;1.36;100.00;97999.94;4247247;33;20046;-69
2022/11/17 12:09:38;;;;;;;3.28;2.42;;;;;;;1.27;100.00;97993.25;4243259;33;20054;-69
2022/11/17 12:12:15;;;;;;;4.03;3.28;;;;;;;1.78;100.00;97994.06;4207071;34;20488;-69
2022/11/17 12:15:06;;;;;;;4.87;2.83;;;;;;;1.92;100.00;98002.75;4210676;33;20778;-70
2022/11/17 12:17:32;;;;;;;5.03;2.78;;;;;;;1.55;100.00;97998.16;4242224;33;20081;-69
2022/11/17 12:20:02;;;;;;;3.00;2.58;;;;;;;1.94;100.00;97987.41;4242668;33;20060;-68
2022/11/17 12:22:28;;;;;;;3.87;2.65;;;;;;;1.93;100.00;97989.25;4242902;33;20082;-70
2022/11/17 12:25:12;;;;;;;3.80;3.40;;;;;;;1.98;100.00;97983.28;4238761;33;20575;-69
2022/11/17 12:27:40;;;;;;;3.72;2.90;;;;;;;1.99;100.00;97991.03;4246423;33;20152;-68
2022/11/17 12:30:31;;;;;;;8.93;3.42;;;;;;;1.84;100.00;97961.34;4221389;33;20382;-69
2022/11/17 12:33:03;;;;;;;4.03;3.62;;;;;;;1.92;100.00;97984.16;4221733;34;20040;-69
2022/11/17 12:35:34;;;;;;;4.32;3.92;;;;;;;1.80;100.00;97955.69;4203183;34;20024;-70
2022/11/17 12:38:16;;;;;;;7.90;3.87;;;;;;;1.97;100.00;97971.03;4205591;34;20126;-70
2022/11/17 12:40:55;;;;;;;4.22;2.92;;;;;;;1.81;100.00;97978.53;4207881;34;20050;-70
2022/11/17 12:43:26;;;;;;;4.85;3.33;;;;;;;1.79;100.00;97974.47;4208310;34;20207;-70
2022/11/17 12:46:14;;;;;;;5.25;3.65;;;;;;;1.92;100.00;97976.19;4209892;34;20055;-69
2022/11/17 12:48:55;;;;;;;9.88;4.68;;;;;;;2.04;100.00;97977.06;4207952;34;20054;-69
2022/11/17 12:51:21;;;;;;;13.23;4.50;;;;;;;1.59;100.00;97969.34;4220020;34;20066;-70
2022/11/17 12:54:39;;;;;;;10.70;4.60;;;;;;;1.63;100.00;97979.31;4223970;34;20065;-70
2022/11/17 12:57:15;;;;;;;12.90;5.20;;;;;;;1.83;100.00;97975.66;4215855;34;20130;-70
2022/11/17 12:59:58;;;;;;;8.25;4.70;;;;;;;1.39;100.00;97949.09;4221733;34;20199;-70
2022/11/17 13:02:42;;;;;;;8.48;4.30;;;;;;;1.63;100.00;97971.34;4222524;34;20063;-69
2022/11/17 13:05:21;;;;;;;7.65;4.07;;;;;;;1.38;100.00;97942.16;4223655;34;20062;-72
2022/11/17 13:07:48;;;;;;;8.48;3.90;;;;;;;1.71;100.00;97969.41;4224144;33;20119;-72
2022/11/17 13:10:25;;;;;;;6.30;3.87;;;;;;;1.69;100.00;97961.72;4235582;33;20220;-72
2022/11/17 13:13:11;;;;;;;5.45;4.03;;;;;;;1.49;100.00;97931.88;4236432;33;20080;-72
2022/11/17 13:15:41;;;;;;;4.28;3.85;;;;;;;1.25;100.00;97958.19;4277538;33;20459;-72
2022/11/17 13:18:24;;;;;;;3.05;2.65;;;;;;;1.29;100.00;97938.16;4279955;33;20042;-71
2022/11/17 13:20:55;;;;;;;8.88;4.22;;;;;;;1.57;100.00;97964.25;4276760;33;20104;-70
2022/11/17 13:23:24;;;;;;;7.15;3.90;;;;;;;1.78;100.00;97957.72;4293024;33;20406;-73
2022/11/17 13:26:19;;;;;;;4.90;3.87;;;;;;;1.91;100.00;97967.41;4283779;33;20040;-74
2022/11/17 13:28:47;;;;;;;6.43;3.72;;;;;;;1.70;100.00;97973.13;4288840;33;20033;-71
2022/11/17 13:31:19;;;;;;;5.60;4.68;;;;;;;1.72;100.00;97961.25;4295516;33;20052;-73
2022/11/17 13:33:55;;;;;;;8.90;5.22;;;;;;;1.62;100.00;97968.91;4295479;33;20051;-71
2022/11/17 13:36:25;;;;;;;6.65;4.57;;;;;;;1.75;100.00;97947.53;4293734;33;20390;-72
2022/11/17 13:38:56;;;;;;;5.82;4.60;;;;;;;1.77;100.00;97960.59;4296096;33;20090;-71
2022/11/17 13:41:24;;;;;;;9.60;5.55;;;;;;;1.45;100.00;97964.16;4296110;33;20053;-71
2022/11/17 13:43:52;;;;;;;10.73;4.43;;;;;;;1.53;100.00;97954.28;4295544;33;20037;-71
2022/11/17 13:46:19;;;;;;;6.80;4.10;;;;;;;1.45;100.00;97964.16;4290061;33;20096;-70
2022/11/17 13:48:47;;;;;;;6.28;4.10;;;;;;;1.43;100.00;97931.72;4283333;33;20087;-70
2022/11/17 13:51:37;;;;;;;5.53;4.32;;;;;;;1.73;100.00;97938.19;4274952;33;20045;-71
2022/11/17 13:54:14;;;;;;;5.53;4.05;;;;;;;1.82;100.00;97955.47;4280247;33;20030;-71
2022/11/17 13:56:41;;;;;;;6.20;4.62;;;;;;;1.96;100.00;97954.28;4280176;33;20045;-71
2022/11/17 13:59:26;;;;;;;10.07;4.35;;;;;;;1.54;100.00;97961.22;4281549;33;20076;-70
2022/11/17 14:02:28;;;;;;;5.15;3.40;;;;;;;1.79;100.00;97975.28;4281067;33;20653;-72
2022/11/17 14:05:13;;;;;;;7.03;3.97;;;;;;;1.98;100.00;97967.34;4228334;33;20051;-69
2022/11/17 14:07:41;;;;;;;10.15;4.85;;;;;;;1.88;100.00;97967.03;4223245;34;20055;-69
2022/11/17 14:10:20;;;;;;;5.70;4.12;;;;;;;1.60;100.00;97968.31;4223224;34;20087;-70
2022/11/17 14:12:49;;;;;;;10.70;4.40;;;;;;;1.39;100.00;97927.87;4222036;34;20084;-71
2022/11/17 14:15:24;;;;;;;6.35;4.12;;;;;;;1.42;100.00;97964.59;4222843;34;20046;-70
2022/11/17 14:17:53;;;;;;;6.80;4.47;;;;;;;1.79;100.00;97964.66;4215709;34;20062;-70
2022/11/17 14:20:23;;;;;;;7.37;4.40;;;;;;;1.62;100.00;97963.59;4217802;34;20039;-70
2022/11/17 14:23:07;;;;;;;8.27;5.00;;;;;;;1.81;100.00;97965.25;4201210;34;21041;-70
2022/11/17 14:25:38;;;;;;;8.02;4.72;;;;;;;1.81;100.00;97961.78;4194986;34;20081;-71